Time,TemperatureF,DewpointF,PressureIn,WindDirection,WindDirectionDegrees,WindSpeedMPH,WindSpeedGustMPH,Humidity,HourlyPrecipIn,Conditions,Clouds,dailyrainin,SolarRadiationWatts/m^2,SoftwareType,DateUTC
2013-02-19 00:00:00,6.4,-1.0,29.89,NW,315,7.0,16.0,71,0.00,,---,0.00,0.00,VWS V14.00,2013-02-19 05:00:00,
2013-02-19 00:30:00,6.2,-0.9,29.91,WNW,292,5.0,12.0,72,0.00,,---,0.00,0.00,VWS V14.00,2013-02-19 05:30:00,
2013-02-19 01:00:00,6.2,-1.2,29.91,NW,315,5.0,12.0,71,0.00,,---,0.00,0.00,VWS V14.00,2013-02-19 06:00:00,
2013-02-19 01:30:00,5.8,-1.3,29.93,NW,315,5.0,14.0,72,0.00,,---,0.00,0.00,VWS V14.00,2013-02-19 06:30:00,
2013-02-19 02:00:00,5.4,-1.6,29.95,NW,315,5.0,13.0,72,0.00,,---,0.00,0.00,VWS V14.00,2013-02-19 07:00:00,
2013-02-19 02:30:00,5.0,-2.0,29.97,NW,315,4.0,11.0,72,0.00,,---,0.00,0.00,VWS V14.00,2013-02-19 07:30:00,
2013-02-19 03:00:00,4.9,-2.1,29.98,WNW,292,4.0,11.0,72,0.00,,---,0.00,0.00,VWS V14.00,2013-02-19 08:00:00,
2013-02-19 03:30:00,4.6,-2.4,30.00,NW,315,3.0,8.0,72,0.00,,---,0.00,0.00,VWS V14.00,2013-02-19 08:30:00,
2013-02-19 04:00:00,4.6,-2.4,30.02,NW,315,3.0,12.0,72,0.00,,---,0.00,0.00,VWS V14.00,2013-02-19 09:00:00,
2013-02-19 04:30:00,4.6,-2.4,30.03,NW,315,4.0,14.0,72,0.00,,---,0.00,0.00,VWS V14.00,2013-02-19 09:30:00,
2013-02-19 05:00:00,4.7,-2.6,30.05,NW,315,3.0,10.0,71,0.00,,---,0.00,9.00,VWS V14.00,2013-02-19 10:00:00,
2013-02-19 05:30:00,5.5,-2.2,30.07,NW,315,3.0,8.0,70,0.00,,---,0.00,34.00,VWS V14.00,2013-02-19 10:30:00,
2013-02-19 06:00:00,6.6,-1.4,30.07,WNW,292,3.0,8.0,69,0.00,,---,0.00,113.00,VWS V14.00,2013-02-19 11:00:00,
2013-02-19 06:30:00,8.1,-0.6,30.09,WNW,292,3.0,11.0,67,0.00,,---,0.00,209.00,VWS V14.00,2013-02-19 11:30:00,
2013-02-19 07:00:00,9.8,-0.9,30.09,NW,315,5.0,13.0,61,0.00,,---,0.00,283.00,VWS V14.00,2013-02-19 12:00:00,
2013-02-19 07:30:00,9.9,-0.2,30.09,West,270,3.0,13.0,63,0.00,,---,0.00,345.00,VWS V14.00,2013-02-19 12:30:00,
2013-02-19 08:00:00,11.1,-0.1,30.10,WSW,248,3.0,12.0,60,0.00,,---,0.00,193.00,VWS V14.00,2013-02-19 13:00:00,
2013-02-19 08:30:00,12.8,1.2,30.10,WSW,248,2.0,14.0,59,0.00,,---,0.00,134.00,VWS V14.00,2013-02-19 13:30:00,
2013-02-19 09:00:00,14.7,-1.4,30.10,WNW,292,5.0,19.0,48,0.00,,---,0.00,127.00,VWS V14.00,2013-02-19 14:00:00,
2013-02-19 09:30:00,16.4,-3.7,30.10,NW,315,8.0,22.0,40,0.00,,---,0.00,437.00,VWS V14.00,2013-02-19 14:30:00,
2013-02-19 10:00:00,17.1,-4.7,30.10,NW,315,11.0,25.0,37,0.00,,---,0.00,595.00,VWS V14.00,2013-02-19 15:00:00,
2013-02-19 10:30:00,18.0,-4.4,30.10,NW,315,10.0,22.0,36,0.00,,---,0.00,596.00,VWS V14.00,2013-02-19 15:30:00,
2013-02-19 11:00:00,19.8,-3.4,30.09,NW,315,8.0,20.0,35,0.00,,---,0.00,582.00,VWS V14.00,2013-02-19 16:00:00,
2013-02-19 11:30:00,19.9,-3.3,30.09,NW,315,10.0,20.0,35,0.00,,---,0.00,555.00,VWS V14.00,2013-02-19 16:30:00,
2013-02-19 12:00:00,20.9,-3.0,30.09,NW,315,7.0,17.0,34,0.00,,---,0.00,516.00,VWS V14.00,2013-02-19 17:00:00,
2013-02-19 12:30:00,21.6,-2.4,30.10,NW,315,7.0,18.0,34,0.00,,---,0.00,464.00,VWS V14.00,2013-02-19 17:30:00,
2013-02-19 13:00:00,21.4,-3.2,30.12,NW,315,7.0,18.0,33,0.00,,---,0.00,392.00,VWS V14.00,2013-02-19 18:00:00,
2013-02-19 13:30:00,21.8,-2.9,30.11,NW,315,6.0,14.0,33,0.00,,---,0.00,298.00,VWS V14.00,2013-02-19 18:30:00,
2013-02-19 14:00:00,21.8,-3.5,30.11,NW,315,8.0,18.0,32,0.00,,---,0.00,175.00,VWS V14.00,2013-02-19 19:00:00,
2013-02-19 14:30:00,21.5,-3.1,30.12,NW,315,5.0,14.0,33,0.00,,---,0.00,27.00,VWS V14.00,2013-02-19 19:30:00,
2013-02-19 15:00:00,20.6,-3.3,30.12,NW,315,2.0,9.0,34,0.00,,---,0.00,15.00,VWS V14.00,2013-02-19 20:00:00,
2013-02-19 15:30:00,19.5,-3.7,30.13,WNW,292,2.0,7.0,35,0.00,,---,0.00,2.00,VWS V14.00,2013-02-19 20:30:00,
2013-02-19 16:00:00,17.8,-0.4,30.14,NW,315,0.0,3.0,44,0.00,,---,0.00,0.00,VWS V14.00,2013-02-19 21:00:00,
2013-02-19 16:30:00,14.8,0.0,30.15,NW,315,0.0,0.0,51,0.00,,---,0.00,0.00,VWS V14.00,2013-02-19 21:30:00,
2013-02-19 17:00:00,12.1,0.2,30.16,WNW,292,0.0,2.0,58,0.00,,---,0.00,0.00,VWS V14.00,2013-02-19 22:00:00,
2013-02-19 17:30:00,10.9,-0.2,30.16,WNW,292,0.0,3.0,60,0.00,,---,0.00,0.00,VWS V14.00,2013-02-19 22:30:00,
2013-02-19 18:00:00,9.9,-0.2,30.15,WNW,292,0.0,1.0,63,0.00,,---,0.00,0.00,VWS V14.00,2013-02-19 23:00:00,
2013-02-19 18:30:00,8.8,-0.6,30.16,WNW,292,0.0,1.0,65,0.00,,---,0.00,0.00,VWS V14.00,2013-02-19 23:30:00,
2013-02-19 19:00:00,7.7,-1.0,30.15,WNW,292,0.0,1.0,67,0.00,,---,0.00,0.00,VWS V14.00,2013-02-20 00:00:00,
2013-02-19 19:30:00,7.1,-0.6,30.14,WNW,292,0.0,1.0,70,0.00,,---,0.00,0.00,VWS V14.00,2013-02-20 00:30:00,
2013-02-19 20:00:00,6.7,-0.7,30.15,WNW,292,0.0,2.0,71,0.00,,---,0.00,0.00,VWS V14.00,2013-02-20 01:00:00,
2013-02-19 20:30:00,6.3,-0.8,30.13,WNW,292,0.0,2.0,72,0.00,,---,0.00,0.00,VWS V14.00,2013-02-20 01:30:00,
2013-02-19 21:00:00,7.0,0.2,30.13,WNW,292,0.0,2.0,73,0.00,,---,0.00,0.00,VWS V14.00,2013-02-20 02:00:00,
2013-02-19 21:30:00,7.3,0.2,30.13,ENE,68,0.0,2.0,72,0.00,,---,0.00,0.00,VWS V14.00,2013-02-20 02:30:00,
2013-02-19 22:00:00,6.9,0.1,30.14,ENE,68,0.0,2.0,73,0.00,,---,0.00,0.00,VWS V14.00,2013-02-20 03:00:00,
2013-02-19 22:30:00,7.0,0.5,30.13,ENE,68,0.0,2.0,74,0.00,,---,0.00,0.00,VWS V14.00,2013-02-20 03:30:00,
2013-02-19 23:00:00,7.6,1.1,30.14,SE,135,0.0,2.0,74,0.00,,---,0.00,0.00,VWS V14.00,2013-02-20 04:00:00,
2013-02-19 23:30:00,8.2,1.6,30.14,SE,135,0.0,1.0,74,0.00,,---,0.00,0.00,VWS V14.00,2013-02-20 04:30:00,